Time;durP1;ratioP1;P1;durP2;ratioP2;P2;SDS_P1;SDS_P2;PMS_P1;PMS_P2;Temp;Humidity;BMP_temperature;BMP_pressure;BME280_temperature;BME280_humidity;BME280_pressure;Samples;Min_cycle;Max_cycle;Signal;HPM_P1;HPM_P2
2022/08/09 00:00:09;;;;;;;5.60;3.03;;;15.80;99.90;;;;;;5050828;28;36980;-60
2022/08/09 00:02:36;;;;;;;6.28;3.47;;;15.80;99.90;;;;;;5051099;28;36665;-60
2022/08/09 00:05:05;;;;;;;5.38;3.13;;;15.80;99.90;;;;;;5050806;28;37184;-60
2022/08/09 00:07:33;;;;;;;4.80;3.28;;;15.80;99.90;;;;;;5050794;28;37948;-60
2022/08/09 00:10:00;;;;;;;5.88;3.65;;;15.70;99.90;;;;;;5054060;28;37944;-60
2022/08/09 00:12:29;;;;;;;5.18;2.90;;;15.70;99.90;;;;;;5055399;28;38525;-60
2022/08/09 00:14:56;;;;;;;5.85;3.30;;;15.70;99.90;;;;;;5054534;28;38830;-60
2022/08/09 00:17:24;;;;;;;5.93;3.28;;;15.70;99.90;;;;;;5055120;28;38184;-60
2022/08/09 00:19:51;;;;;;;4.88;3.05;;;15.70;99.90;;;;;;5053122;28;36015;-61
2022/08/09 00:22:19;;;;;;;5.47;3.30;;;15.70;99.90;;;;;;5053898;28;36354;-60
2022/08/09 00:24:46;;;;;;;5.72;3.33;;;15.70;99.90;;;;;;5052349;28;38284;-60
2022/08/09 00:27:13;;;;;;;5.03;3.05;;;15.60;99.90;;;;;;5053732;28;36683;-61
2022/08/09 00:29:42;;;;;;;5.30;3.30;;;15.60;99.90;;;;;;5054231;28;37470;-61
2022/08/09 00:32:09;;;;;;;6.07;3.17;;;15.60;99.90;;;;;;5054423;28;37908;-60
2022/08/09 00:34:36;;;;;;;5.10;3.38;;;15.50;99.90;;;;;;5053355;28;37243;-61
2022/08/09 00:37:04;;;;;;;4.53;2.67;;;15.50;99.90;;;;;;5054923;28;38593;-60
2022/08/09 00:39:31;;;;;;;5.43;3.15;;;15.50;99.90;;;;;;5053576;28;37223;-60
2022/08/09 00:41:58;;;;;;;5.57;3.05;;;15.50;99.90;;;;;;5053342;28;37849;-60
2022/08/09 00:44:26;;;;;;;5.05;3.30;;;15.50;99.90;;;;;;5054018;28;37644;-60
2022/08/09 00:46:54;;;;;;;5.45;2.97;;;15.40;99.90;;;;;;5053369;28;36374;-60
2022/08/09 00:49:22;;;;;;;5.93;3.08;;;15.40;99.90;;;;;;5054658;28;37142;-61
2022/08/09 00:51:49;;;;;;;7.15;3.67;;;15.30;99.90;;;;;;5053519;28;36727;-61
2022/08/09 00:54:17;;;;;;;5.60;2.90;;;15.40;99.90;;;;;;5053960;28;38182;-60
2022/08/09 00:56:44;;;;;;;6.07;3.38;;;15.30;99.90;;;;;;5054159;28;36581;-60
2022/08/09 00:59:11;;;;;;;5.35;3.03;;;15.30;99.90;;;;;;5052698;28;37588;-60
2022/08/09 01:01:40;;;;;;;5.45;3.20;;;15.30;99.90;;;;;;5054520;28;36519;-60
2022/08/09 01:04:22;;;;;;;5.57;3.15;;;15.30;99.90;;;;;;5052943;28;38128;-60
2022/08/09 01:06:57;;;;;;;5.85;3.45;;;15.30;99.90;;;;;;5053603;28;37033;-60
2022/08/09 01:09:32;;;;;;;4.72;2.97;;;15.20;99.90;;;;;;5051764;28;37163;-61
2022/08/09 01:12:06;;;;;;;5.20;2.60;;;15.20;99.90;;;;;;5054620;28;35336;-60
2022/08/09 01:14:40;;;;;;;5.03;3.00;;;15.20;99.90;;;;;;5052027;28;37521;-60
2022/08/09 01:17:09;;;;;;;6.07;2.92;;;15.20;99.90;;;;;;5054887;28;40005;-60
2022/08/09 01:19:43;;;;;;;6.03;3.20;;;15.20;99.90;;;;;;5053455;28;35977;-61
2022/08/09 01:22:37;;;;;;;4.30;2.58;;;15.20;99.90;;;;;;5052980;28;37229;-60
2022/08/09 01:25:16;;;;;;;;;;;15.20;99.90;;;;;;5036144;28;37365;-60
2022/08/09 01:27:49;;;;;;;5.82;2.63;;;15.20;99.90;;;;;;5053724;28;38659;-60
2022/08/09 01:30:17;;;;;;;5.38;2.45;;;15.20;99.90;;;;;;5053224;28;37803;-60
2022/08/09 01:32:47;;;;;;;4.22;2.10;;;15.20;99.90;;;;;;5052814;28;36999;-61
2022/08/09 01:35:17;;;;;;;4.78;2.80;;;15.20;99.90;;;;;;5053038;28;39510;-60
2022/08/09 01:37:46;;;;;;;4.07;2.40;;;15.10;99.90;;;;;;5053463;28;38753;-61
2022/08/09 01:40:15;;;;;;;4.30;2.28;;;15.10;99.90;;;;;;5053342;28;36482;-61
2022/08/09 01:42:44;;;;;;;4.25;2.15;;;15.10;99.90;;;;;;5053813;28;37468;-60
2022/08/09 01:45:12;;;;;;;4.18;2.22;;;15.00;99.90;;;;;;5052129;28;36881;-60
2022/08/09 01:47:41;;;;;;;4.43;2.65;;;15.00;99.90;;;;;;5053136;28;38700;-61
2022/08/09 01:50:11;;;;;;;4.32;2.53;;;15.00;99.90;;;;;;5053942;28;38488;-60
2022/08/09 01:52:39;;;;;;;5.43;2.33;;;15.00;99.90;;;;;;5053531;28;36636;-60
2022/08/09 01:55:10;;;;;;;3.38;1.80;;;15.00;99.90;;;;;;5053481;28;36188;-61
2022/08/09 01:57:41;;;;;;;3.85;1.73;;;15.00;99.90;;;;;;5052547;28;37276;-60
2022/08/09 02:00:12;;;;;;;3.80;1.98;;;15.00;99.90;;;;;;5054202;28;37164;-60
2022/08/09 02:02:43;;;;;;;4.88;2.60;;;15.00;99.90;;;;;;5053459;28;37288;-60
2022/08/09 02:05:12;;;;;;;5.30;2.55;;;15.00;99.90;;;;;;5052134;28;37908;-60
2022/08/09 02:07:43;;;;;;;5.00;2.00;;;15.00;99.90;;;;;;5051695;28;37775;-60
2022/08/09 02:10:16;;;;;;;4.15;2.10;;;15.00;99.90;;;;;;5052974;28;37721;-60
2022/08/09 02:12:45;;;;;;;6.72;2.80;;;15.00;99.90;;;;;;5051546;28;37856;-60
2022/08/09 02:15:16;;;;;;;7.82;3.03;;;15.00;99.90;;;;;;5053493;28;37791;-60
2022/08/09 02:17:45;;;;;;;5.35;2.80;;;15.00;99.90;;;;;;5052194;28;37814;-60
2022/08/09 02:20:13;;;;;;;5.07;2.65;;;14.90;99.90;;;;;;5053938;28;36735;-60
2022/08/09 02:22:45;;;;;;;4.25;1.85;;;14.90;99.90;;;;;;5050582;28;36601;-60
2022/08/09 02:25:18;;;;;;;4.65;2.10;;;14.90;99.90;;;;;;5052095;28;41334;-60
2022/08/09 02:27:50;;;;;;;3.63;1.80;;;14.90;99.90;;;;;;5050077;28;38646;-60
2022/08/09 02:30:19;;;;;;;3.30;1.77;;;14.90;99.90;;;;;;5053627;28;36990;-61
2022/08/09 02:32:47;;;;;;;4.95;2.22;;;14.80;99.90;;;;;;5049949;28;36540;-61
2022/08/09 02:35:20;;;;;;;4.53;1.55;;;14.80;99.90;;;;;;5052652;28;38643;-60
2022/08/09 02:37:51;;;;;;;3.03;1.70;;;14.70;99.90;;;;;;5051340;28;40235;-60
2022/08/09 02:40:21;;;;;;;4.65;1.70;;;14.70;99.90;;;;;;5052754;28;37799;-60
2022/08/09 02:42:51;;;;;;;4.30;1.65;;;14.60;99.90;;;;;;5051426;28;36983;-60
2022/08/09 02:45:27;;;;;;;3.40;1.48;;;14.70;99.90;;;;;;5052484;28;37772;-60
2022/08/09 02:47:58;;;;;;;1.90;1.25;;;14.70;99.90;;;;;;5051093;28;37654;-60
2022/08/09 02:50:30;;;;;;;1.70;0.98;;;14.60;99.90;;;;;;5053214;28;37030;-60
2022/08/09 02:53:02;;;;;;;1.88;0.85;;;14.60;99.90;;;;;;5051992;28;36455;-61
2022/08/09 02:55:31;;;;;;;3.45;1.27;;;14.60;99.90;;;;;;5053674;28;37982;-60
2022/08/09 02:58:00;;;;;;;2.95;1.45;;;14.60;99.90;;;;;;5050881;28;38157;-60
2022/08/09 03:00:30;;;;;;;2.50;1.30;;;14.60;99.90;;;;;;5052385;28;37510;-60
2022/08/09 03:03:00;;;;;;;2.50;1.30;;;14.50;99.90;;;;;;5052208;28;36501;-60
2022/08/09 03:05:28;;;;;;;3.60;1.25;;;14.50;99.90;;;;;;5051954;28;39349;-60
2022/08/09 03:07:57;;;;;;;2.53;1.20;;;14.50;99.90;;;;;;5052533;28;38250;-60
2022/08/09 03:10:26;;;;;;;1.88;1.10;;;14.50;99.90;;;;;;5052541;28;37479;-60
2022/08/09 03:12:54;;;;;;;2.97;1.13;;;14.40;99.90;;;;;;5051602;28;36136;-60
2022/08/09 03:15:23;;;;;;;3.28;1.40;;;14.40;99.90;;;;;;5052545;28;37632;-60
2022/08/09 03:17:53;;;;;;;1.48;0.93;;;14.50;99.90;;;;;;5052111;28;37418;-60
2022/08/09 03:20:21;;;;;;;1.60;1.00;;;14.40;99.90;;;;;;5052241;28;38148;-61
2022/08/09 03:22:49;;;;;;;2.13;1.15;;;14.40;99.90;;;;;;5051718;28;35220;-60
2022/08/09 03:25:16;;;;;;;1.58;0.90;;;14.40;99.90;;;;;;5052019;28;37835;-60
2022/08/09 03:27:47;;;;;;;2.20;1.13;;;14.40;99.90;;;;;;5050269;28;37338;-60
2022/08/09 03:30:15;;;;;;;2.33;1.17;;;14.40;99.90;;;;;;5051440;28;38175;-61
2022/08/09 03:32:43;;;;;;;2.58;1.30;;;14.40;99.90;;;;;;5051752;28;36677;-60
2022/08/09 03:35:12;;;;;;;1.42;1.00;;;14.30;99.90;;;;;;5051252;28;37626;-60
2022/08/09 03:37:40;;;;;;;1.05;0.73;;;14.30;99.90;;;;;;5051267;28;37916;-60
2022/08/09 03:40:09;;;;;;;1.75;0.93;;;14.30;99.90;;;;;;5051767;28;37069;-60
2022/08/09 03:42:36;;;;;;;1.50;1.00;;;14.30;99.90;;;;;;5053095;28;36669;-60
2022/08/09 03:45:05;;;;;;;1.35;0.82;;;14.40;99.90;;;;;;5055501;28;38894;-60
2022/08/09 03:47:32;;;;;;;1.95;0.98;;;14.30;99.90;;;;;;5055110;28;36573;-59
2022/08/09 03:50:03;;;;;;;1.67;0.95;;;14.30;99.90;;;;;;5053121;28;37242;-60
2022/08/09 03:52:32;;;;;;;2.08;1.10;;;14.30;99.90;;;;;;5053423;28;36622;-61
2022/08/09 03:55:03;;;;;;;1.65;1.00;;;14.30;99.90;;;;;;5054180;28;39024;-61
2022/08/09 03:57:31;;;;;;;2.33;1.42;;;14.20;99.90;;;;;;5051342;28;39196;-60
2022/08/09 03:59:58;;;;;;;1.65;1.00;;;14.30;99.90;;;;;;5055113;28;36883;-60
2022/08/09 04:02:28;;;;;;;2.25;1.17;;;14.20;99.90;;;;;;5055447;28;36198;-61
2022/08/09 04:04:58;;;;;;;2.42;1.23;;;14.20;99.90;;;;;;5055944;28;37951;-61
2022/08/09 04:07:26;;;;;;;2.72;1.10;;;14.20;99.90;;;;;;5054029;28;39790;-60
2022/08/09 04:09:55;;;;;;;2.08;1.10;;;14.20;99.90;;;;;;5055417;28;37481;-59
2022/08/09 04:12:41;;;;;;;2.78;1.52;;;14.20;99.90;;;;;;5053794;28;36023;-59
2022/08/09 04:15:09;;;;;;;2.30;1.40;;;14.20;99.90;;;;;;5054378;28;37703;-59
2022/08/09 04:17:36;;;;;;;3.45;1.40;;;14.20;99.90;;;;;;5054993;28;37943;-61
2022/08/09 04:20:05;;;;;;;3.28;1.67;;;14.20;99.90;;;;;;5054474;28;36256;-60
2022/08/09 04:22:33;;;;;;;5.72;1.70;;;14.20;99.90;;;;;;5053861;28;37682;-60
2022/08/09 04:25:02;;;;;;;2.47;1.38;;;14.20;99.90;;;;;;5055066;28;36925;-60
2022/08/09 04:27:29;;;;;;;2.50;1.48;;;14.20;99.90;;;;;;5053014;28;39139;-59
2022/08/09 04:29:57;;;;;;;3.25;1.48;;;14.20;99.90;;;;;;5055242;28;37500;-59
2022/08/09 04:32:26;;;;;;;3.03;1.45;;;14.20;99.90;;;;;;5055212;28;36712;-60
2022/08/09 04:34:54;;;;;;;3.08;1.55;;;14.20;99.90;;;;;;5053855;28;37619;-61
2022/08/09 04:37:22;;;;;;;4.07;1.67;;;14.20;99.90;;;;;;5054562;28;38167;-59
2022/08/09 04:39:49;;;;;;;2.97;1.70;;;14.20;99.90;;;;;;5054116;28;37321;-60
2022/08/09 04:42:18;;;;;;;2.50;1.35;;;14.20;99.90;;;;;;5053784;28;35941;-60
2022/08/09 04:44:45;;;;;;;3.47;1.63;;;14.20;99.90;;;;;;5055415;28;39197;-60
2022/08/09 04:47:12;;;;;;;3.40;1.70;;;14.20;99.90;;;;;;5054139;28;37899;-60
2022/08/09 04:49:40;;;;;;;2.97;1.50;;;14.30;99.90;;;;;;5053858;28;39129;-59
2022/08/09 04:52:07;;;;;;;3.30;1.90;;;14.30;99.90;;;;;;5054941;28;39638;-61
2022/08/09 04:54:34;;;;;;;4.97;1.40;;;14.40;99.90;;;;;;5053169;28;37619;-60
2022/08/09 04:57:02;;;;;;;3.33;1.73;;;14.40;99.90;;;;;;5054262;28;37221;-60
2022/08/09 04:59:30;;;;;;;3.60;1.70;;;14.50;99.90;;;;;;5053790;28;37742;-61
2022/08/09 05:01:58;;;;;;;3.47;1.80;;;14.60;99.90;;;;;;5052625;28;36888;-60
2022/08/09 05:04:25;;;;;;;4.38;2.10;;;14.60;99.90;;;;;;5053807;28;37590;-60
2022/08/09 05:06:52;;;;;;;4.30;2.10;;;14.70;99.90;;;;;;5052909;28;40104;-60
2022/08/09 05:09:20;;;;;;;5.20;1.80;;;14.70;99.90;;;;;;5052017;28;36549;-60
2022/08/09 05:11:47;;;;;;;3.15;1.60;;;14.80;99.90;;;;;;5052167;28;35395;-60
2022/08/09 05:14:14;;;;;;;2.95;1.58;;;14.90;99.90;;;;;;5050554;28;37595;-60
2022/08/09 05:16:43;;;;;;;2.88;1.50;;;15.00;99.90;;;;;;5052817;28;38259;-59
2022/08/09 05:19:13;;;;;;;2.55;1.40;;;15.00;99.90;;;;;;5052000;28;36752;-60
2022/08/09 05:21:41;;;;;;;3.28;1.70;;;15.10;99.90;;;;;;5052207;28;36631;-60
2022/08/09 05:24:09;;;;;;;3.03;1.33;;;15.20;99.90;;;;;;5054698;28;20683;-61
2022/08/09 05:26:37;;;;;;;3.63;1.60;;;15.30;99.90;;;;;;5052232;28;38232;-60
2022/08/09 05:29:04;;;;;;;4.85;1.75;;;15.40;99.90;;;;;;5045818;28;37273;-60
2022/08/09 05:31:32;;;;;;;3.55;1.35;;;15.50;99.90;;;;;;5043707;28;36774;-59
2022/08/09 05:34:01;;;;;;;2.40;1.30;;;15.70;99.90;;;;;;5048221;28;38239;-60
2022/08/09 05:36:28;;;;;;;4.60;1.58;;;15.80;99.90;;;;;;5047168;28;39877;-60
2022/08/09 05:38:55;;;;;;;2.58;1.30;;;15.90;99.90;;;;;;5046970;28;38160;-61
2022/08/09 05:41:22;;;;;;;2.97;1.48;;;16.10;99.90;;;;;;5046018;28;36450;-60
2022/08/09 05:43:50;;;;;;;5.00;2.00;;;16.10;99.90;;;;;;5044451;28;37226;-60
2022/08/09 05:46:17;;;;;;;2.80;1.40;;;16.20;99.90;;;;;;5048414;28;37892;-60
2022/08/09 05:48:45;;;;;;;3.53;1.77;;;16.40;99.90;;;;;;5049781;28;38648;-60
2022/08/09 05:51:13;;;;;;;3.08;1.73;;;16.50;99.90;;;;;;5048468;28;37520;-61
2022/08/09 05:53:41;;;;;;;4.22;2.13;;;16.60;99.90;;;;;;5046138;28;37533;-60
2022/08/09 05:56:09;;;;;;;3.33;1.70;;;16.70;99.90;;;;;;5045900;28;38722;-60
2022/08/09 05:58:36;;;;;;;3.70;1.75;;;16.80;99.90;;;;;;5046802;28;35973;-60
2022/08/09 06:01:03;;;;;;;4.15;1.90;;;16.90;99.90;;;;;;5045633;28;37539;-61
2022/08/09 06:03:30;;;;;;;4.75;2.35;;;17.00;99.90;;;;;;5048120;28;36143;-61
2022/08/09 06:05:58;;;;;;;10.15;2.38;;;17.10;99.90;;;;;;5045749;28;38601;-60
2022/08/09 06:08:27;;;;;;;4.45;2.10;;;17.20;99.90;;;;;;5047874;28;37967;-60
2022/08/09 06:10:54;;;;;;;3.95;2.40;;;17.20;99.90;;;;;;5048304;28;36745;-60
2022/08/09 06:13:22;;;;;;;4.65;2.53;;;17.30;99.90;;;;;;5046837;28;37890;-60
2022/08/09 06:15:50;;;;;;;4.47;2.30;;;17.40;99.90;;;;;;5044495;28;36422;-60
2022/08/09 06:18:17;;;;;;;5.18;3.10;;;17.50;99.90;;;;;;5047391;28;37526;-60
2022/08/09 06:20:45;;;;;;;4.93;3.00;;;17.60;99.90;;;;;;5045518;28;36863;-60
2022/08/09 06:23:12;;;;;;;5.45;2.85;;;17.60;99.90;;;;;;5046624;28;36297;-60
2022/08/09 06:25:41;;;;;;;5.25;2.92;;;17.60;99.90;;;;;;5046627;28;38002;-60
2022/08/09 06:28:08;;;;;;;5.10;3.00;;;17.70;99.90;;;;;;5046867;28;38548;-61
2022/08/09 06:30:35;;;;;;;5.45;3.25;;;17.70;99.90;;;;;;5047875;28;36586;-60
2022/08/09 06:33:03;;;;;;;5.45;2.67;;;17.80;99.90;;;;;;5047070;28;38003;-60
2022/08/09 06:35:30;;;;;;;6.53;3.53;;;17.80;99.90;;;;;;5045381;28;38003;-60
2022/08/09 06:37:58;;;;;;;6.80;3.10;;;17.90;99.90;;;;;;5047030;28;38654;-60
2022/08/09 06:40:25;;;;;;;5.85;3.13;;;18.00;99.90;;;;;;5049244;28;37290;-60
2022/08/09 06:42:54;;;;;;;6.05;3.97;;;18.00;99.90;;;;;;5046668;28;38960;-60
2022/08/09 06:45:22;;;;;;;7.13;3.10;;;18.20;99.90;;;;;;5047562;28;38776;-60
2022/08/09 06:47:49;;;;;;;7.03;3.47;;;18.20;99.90;;;;;;5046335;28;38022;-61
2022/08/09 06:50:17;;;;;;;7.22;3.38;;;18.20;99.90;;;;;;5044389;28;36734;-61
2022/08/09 06:52:45;;;;;;;8.27;3.47;;;18.30;99.90;;;;;;5045872;28;37900;-61
2022/08/09 06:55:13;;;;;;;5.85;3.35;;;18.30;99.90;;;;;;5045856;28;36430;-61
2022/08/09 06:57:40;;;;;;;7.35;3.95;;;18.40;99.90;;;;;;5044042;28;36880;-61
2022/08/09 07:00:11;;;;;;;7.07;4.18;;;18.50;99.90;;;;;;5043894;28;35123;-61
2022/08/09 07:02:38;;;;;;;7.80;3.53;;;18.50;99.90;;;;;;5046683;28;38575;-60
2022/08/09 07:05:07;;;;;;;6.93;3.40;;;18.60;99.90;;;;;;5044744;28;38342;-61
2022/08/09 07:07:34;;;;;;;6.05;3.60;;;18.70;99.90;;;;;;5049457;28;38056;-60
2022/08/09 07:10:02;;;;;;;11.32;4.38;;;18.80;99.90;;;;;;5045787;28;35427;-60
2022/08/09 07:12:29;;;;;;;8.27;3.85;;;18.90;99.90;;;;;;5045552;28;36905;-61
2022/08/09 07:14:56;;;;;;;7.07;2.65;;;18.90;99.90;;;;;;5043806;28;38295;-61
2022/08/09 07:17:25;;;;;;;7.13;2.22;;;19.00;99.90;;;;;;5045804;28;37817;-60
2022/08/09 07:19:52;;;;;;;3.97;1.92;;;19.10;99.90;;;;;;5036778;28;35382;-61
2022/08/09 07:22:19;;;;;;;2.95;1.38;;;19.20;99.90;;;;;;5034218;28;42281;-61
2022/08/09 07:24:47;;;;;;;4.22;1.77;;;19.30;99.90;;;;;;5031155;28;37842;-60
2022/08/09 07:27:14;;;;;;;5.65;1.55;;;19.50;99.90;;;;;;5030798;28;38338;-61
2022/08/09 07:29:42;;;;;;;6.50;1.63;;;19.50;99.90;;;;;;5029371;28;36540;-61
2022/08/09 07:32:09;;;;;;;4.68;1.92;;;19.60;99.90;;;;;;5029940;28;38379;-60
2022/08/09 07:34:38;;;;;;;4.10;1.48;;;19.60;99.90;;;;;;5034685;28;37184;-61
2022/08/09 07:37:05;;;;;;;4.07;2.08;;;19.70;99.90;;;;;;5034423;28;39907;-61
2022/08/09 07:39:33;;;;;;;4.85;1.80;;;19.70;99.90;;;;;;5035462;28;36992;-61
2022/08/09 07:42:01;;;;;;;4.05;1.83;;;19.70;99.90;;;;;;5034824;28;38085;-61
2022/08/09 07:44:28;;;;;;;4.10;1.75;;;19.80;99.90;;;;;;5035070;28;36598;-61
2022/08/09 07:46:55;;;;;;;4.63;1.80;;;19.80;99.90;;;;;;5033711;28;38517;-61
2022/08/09 07:49:23;;;;;;;5.93;1.80;;;19.70;99.90;;;;;;5035409;28;35242;-61
2022/08/09 07:51:52;;;;;;;6.70;1.83;;;19.70;99.90;;;;;;5036173;28;37056;-61
2022/08/09 07:54:19;;;;;;;6.32;2.40;;;19.70;99.90;;;;;;5035152;28;36422;-61
2022/08/09 07:56:47;;;;;;;5.18;2.00;;;19.70;99.90;;;;;;5035072;28;37430;-61
2022/08/09 07:59:14;;;;;;;4.80;1.75;;;19.80;99.90;;;;;;5034129;28;37853;-61
2022/08/09 08:01:41;;;;;;;5.97;1.70;;;19.70;99.90;;;;;;5034610;28;37578;-61
2022/08/09 08:04:09;;;;;;;2.70;1.30;;;19.80;99.90;;;;;;5028586;28;38135;-61
2022/08/09 08:06:36;;;;;;;5.68;2.40;;;19.90;99.90;;;;;;5032955;28;37011;-61
2022/08/09 08:09:05;;;;;;;4.72;1.73;;;19.90;99.90;;;;;;5034588;28;37146;-62
2022/08/09 08:11:32;;;;;;;4.97;1.63;;;20.00;99.90;;;;;;5034181;28;37754;-61
2022/08/09 08:13:59;;;;;;;3.63;1.42;;;20.00;99.90;;;;;;5033618;28;38342;-61
2022/08/09 08:16:27;;;;;;;3.63;1.35;;;20.10;99.90;;;;;;5033420;28;36107;-61
2022/08/09 08:18:54;;;;;;;2.83;1.13;;;20.10;99.90;;;;;;5030415;28;36656;-61
2022/08/09 08:21:21;;;;;;;2.15;1.00;;;20.20;99.90;;;;;;5024193;28;37529;-61
2022/08/09 08:23:49;;;;;;;4.15;1.10;;;20.20;99.90;;;;;;5028132;28;37417;-61
2022/08/09 08:26:17;;;;;;;1.50;0.60;;;20.30;99.90;;;;;;5028530;28;37902;-61
2022/08/09 08:28:45;;;;;;;1.52;0.70;;;20.30;99.90;;;;;;5025957;28;36657;-62
2022/08/09 08:31:12;;;;;;;2.88;0.90;;;20.50;99.90;;;;;;5022777;28;36399;-61
2022/08/09 08:33:39;;;;;;;1.92;0.80;;;20.60;99.90;;;;;;5022475;28;39244;-61
2022/08/09 08:36:07;;;;;;;2.08;0.80;;;20.70;99.90;;;;;;5025768;28;37313;-62
2022/08/09 08:38:37;;;;;;;4.90;0.90;;;20.90;99.90;;;;;;5024496;28;35300;-61
2022/08/09 08:41:04;;;;;;;4.95;1.17;;;20.90;99.90;;;;;;5024427;28;37697;-61
2022/08/09 08:43:34;;;;;;;3.97;1.05;;;20.90;99.70;;;;;;5027733;28;37990;-61
2022/08/09 08:46:04;;;;;;;3.17;1.08;;;20.80;99.90;;;;;;5025564;28;37366;-61
2022/08/09 08:48:32;;;;;;;5.03;1.92;;;20.70;99.90;;;;;;5027188;28;36406;-61
2022/08/09 08:51:00;;;;;;;3.00;0.93;;;20.60;99.90;;;;;;5028160;28;36177;-61
2022/08/09 08:53:29;;;;;;;3.10;1.08;;;20.60;99.90;;;;;;5022937;28;39096;-61
2022/08/09 08:55:57;;;;;;;2.38;0.70;;;20.50;99.90;;;;;;5024102;28;39026;-61
2022/08/09 08:58:25;;;;;;;3.38;1.10;;;20.40;99.90;;;;;;5023951;28;36966;-61
2022/08/09 09:00:54;;;;;;;2.25;1.00;;;20.40;99.90;;;;;;5022911;28;38292;-61
2022/08/09 09:03:22;;;;;;;3.13;0.90;;;20.40;99.90;;;;;;5025260;28;38427;-61
2022/08/09 09:05:49;;;;;;;3.45;1.27;;;20.60;99.90;;;;;;5024090;28;36560;-61
2022/08/09 09:08:20;;;;;;;3.25;1.10;;;20.80;99.90;;;;;;5025818;28;36549;-61
2022/08/09 09:10:48;;;;;;;3.95;1.38;;;20.80;99.90;;;;;;5026446;28;37140;-61
2022/08/09 09:13:18;;;;;;;4.40;1.45;;;20.70;99.90;;;;;;5026627;28;39174;-61
2022/08/09 09:15:45;;;;;;;6.45;1.48;;;20.60;99.90;;;;;;5019838;28;37102;-61
2022/08/09 09:18:15;;;;;;;3.53;1.40;;;20.50;99.90;;;;;;5028146;28;35189;-61
2022/08/09 09:20:43;;;;;;;2.15;0.90;;;20.50;99.90;;;;;;5027826;28;37788;-61
2022/08/09 09:23:11;;;;;;;4.13;1.35;;;20.50;99.90;;;;;;5026684;28;37730;-61
2022/08/09 09:25:40;;;;;;;3.50;1.00;;;20.50;99.90;;;;;;5032370;28;36087;-61
2022/08/09 09:28:08;;;;;;;2.38;1.00;;;20.60;99.90;;;;;;5032615;28;36473;-61
2022/08/09 09:30:52;;;;;;;2.08;0.90;;;20.70;99.90;;;;;;5028441;28;37367;-61
2022/08/09 09:33:21;;;;;;;;;;;20.70;99.40;;;;;;5028016;28;36550;-60
2022/08/09 09:35:53;;;;;;;3.75;1.05;;;20.90;99.90;;;;;;5029522;28;36734;-61
2022/08/09 09:38:22;;;;;;;3.33;1.30;;;21.00;99.70;;;;;;5029151;28;36148;-61
2022/08/09 09:40:49;;;;;;;2.53;0.90;;;21.00;99.30;;;;;;5031556;28;39152;-61
2022/08/09 09:43:19;;;;;;;3.67;1.05;;;21.00;99.10;;;;;;5031691;28;37804;-61
2022/08/09 09:45:52;;;;;;;3.33;1.00;;;21.00;98.90;;;;;;5033335;28;38722;-61
2022/08/09 09:48:22;;;;;;;2.47;0.80;;;20.90;99.00;;;;;;5032312;28;35187;-61
2022/08/09 09:50:53;;;;;;;3.55;0.90;;;20.80;99.00;;;;;;5033072;28;37791;-61
2022/08/09 09:53:22;;;;;;;1.80;0.80;;;20.80;99.00;;;;;;5032644;28;37693;-61
2022/08/09 09:55:54;;;;;;;3.15;0.73;;;20.70;99.20;;;;;;5033021;28;37888;-61
2022/08/09 09:58:22;;;;;;;2.25;0.95;;;20.80;99.40;;;;;;5033164;28;38915;-61
2022/08/09 10:00:52;;;;;;;2.38;1.15;;;21.00;99.90;;;;;;5030390;28;37418;-62
2022/08/09 10:03:39;;;;;;;5.05;1.05;;;21.20;99.70;;;;;;5030912;28;38727;-61
2022/08/09 10:06:07;;;;;;;2.72;0.77;;;21.40;98.60;;;;;;5031276;28;37496;-61
2022/08/09 10:08:35;;;;;;;3.10;0.73;;;21.40;98.80;;;;;;5029882;28;35374;-62
2022/08/09 10:11:17;;;;;;;2.20;0.63;;;21.50;98.50;;;;;;5032159;28;36352;-61
2022/08/09 10:13:44;;;;;;;1.65;0.70;;;21.60;97.30;;;;;;5031182;28;37835;-61
2022/08/09 10:16:13;;;;;;;1.98;0.70;;;21.60;97.50;;;;;;5032374;28;36147;-61
2022/08/09 10:18:50;;;;;;;1.98;0.90;;;21.60;97.60;;;;;;5030150;28;35183;-61
2022/08/09 10:21:18;;;;;;;1.27;0.70;;;21.70;96.80;;;;;;5025076;28;39255;-61
2022/08/09 10:23:46;;;;;;;1.50;0.75;;;21.90;97.00;;;;;;5025924;28;38302;-61
2022/08/09 10:26:14;;;;;;;2.45;0.73;;;22.00;97.20;;;;;;5025364;28;38623;-61
2022/08/09 10:28:43;;;;;;;2.92;0.70;;;22.20;96.30;;;;;;5026901;28;37650;-61
2022/08/09 10:31:12;;;;;;;4.47;0.68;;;22.30;96.30;;;;;;5023191;28;38257;-62
2022/08/09 10:33:42;;;;;;;1.83;0.57;;;22.40;96.30;;;;;;5021170;28;38838;-62
2022/08/09 10:36:11;;;;;;;2.35;0.65;;;22.50;95.30;;;;;;5023703;28;37931;-62
2022/08/09 10:38:40;;;;;;;0.95;0.60;;;22.40;94.70;;;;;;5028380;28;37422;-62
2022/08/09 10:41:08;;;;;;;4.97;1.33;;;22.20;94.80;;;;;;5026891;28;37938;-62
2022/08/09 10:43:37;;;;;;;1.92;0.85;;;22.10;95.50;;;;;;5025342;28;37550;-61
2022/08/09 10:46:31;;;;;;;3.03;0.88;;;22.10;96.10;;;;;;5027929;28;37503;-61
2022/08/09 10:49:08;;;;;;;1.20;0.50;;;22.40;96.60;;;;;;5007113;28;36395;-61
2022/08/09 10:51:48;;;;;;;1.73;0.68;;;22.70;96.10;;;;;;5025580;28;37578;-62
2022/08/09 10:54:15;;;;;;;3.78;0.82;;;23.00;94.90;;;;;;5009252;28;37741;-61
2022/08/09 10:56:43;;;;;;;1.30;0.50;;;23.10;95.10;;;;;;5024732;28;38629;-62
2022/08/09 10:59:38;;;;;;;1.02;0.40;;;23.10;93.80;;;;;;5012854;28;39298;-61
2022/08/09 11:02:06;;;;;;;1.77;0.60;;;23.00;93.20;;;;;;4967636;28;37487;-62
2022/08/09 11:04:35;;;;;;;1.05;0.38;;;23.00;94.00;;;;;;5009468;28;37712;-61
2022/08/09 11:07:29;;;;;;;1.48;0.52;;;23.20;94.30;;;;;;5010956;28;36693;-61
2022/08/09 11:09:57;;;;;;;1.40;0.55;;;23.20;92.50;;;;;;4998473;28;37327;-61
2022/08/09 11:12:27;;;;;;;0.88;0.50;;;23.10;92.80;;;;;;5012798;28;37343;-61
2022/08/09 11:14:56;;;;;;;1.42;0.50;;;22.90;92.80;;;;;;5024369;28;38484;-62
2022/08/09 11:17:54;;;;;;;1.65;0.60;;;22.90;93.10;;;;;;5024823;28;38404;-62
2022/08/09 11:20:46;;;;;;;1.48;0.52;;;23.00;93.10;;;;;;5042921;28;38297;-61
2022/08/09 11:23:14;;;;;;;2.03;0.50;;;23.20;93.30;;;;;;5043461;28;36394;-62
2022/08/09 11:25:46;;;;;;;2.67;0.70;;;23.30;93.20;;;;;;5047784;28;37942;-61
2022/08/09 11:28:34;;;;;;;1.33;0.55;;;23.30;92.40;;;;;;5042581;28;36195;-61
2022/08/09 11:31:02;;;;;;;2.47;0.70;;;23.50;93.40;;;;;;5043457;28;36540;-62
2022/08/09 11:33:47;;;;;;;1.48;0.60;;;23.50;92.90;;;;;;5037822;28;38089;-61
2022/08/09 11:36:18;;;;;;;3.35;0.55;;;23.60;92.00;;;;;;5044627;28;36561;-62
2022/08/09 11:39:00;;;;;;;1.60;0.47;;;23.60;91.60;;;;;;5043780;28;37567;-62
2022/08/09 11:41:29;;;;;;;2.25;0.70;;;23.60;91.80;;;;;;5038602;28;38228;-62
2022/08/09 11:43:57;;;;;;;2.15;0.40;;;23.70;91.70;;;;;;5039995;28;37621;-62
2022/08/09 11:46:26;;;;;;;1.42;0.40;;;23.70;91.60;;;;;;5042826;28;37905;-61
2022/08/09 11:48:56;;;;;;;3.58;0.82;;;23.70;91.10;;;;;;5040562;28;37563;-62
2022/08/09 11:51:26;;;;;;;0.85;0.38;;;23.60;91.30;;;;;;5038929;28;35895;-62
2022/08/09 11:54:13;;;;;;;0.40;0.35;;;23.50;91.00;;;;;;5041685;28;37557;-61
2022/08/09 11:56:40;;;;;;;2.13;0.40;;;23.30;91.30;;;;;;5043070;28;37939;-61
2022/08/09 11:59:08;;;;;;;1.73;0.63;;;23.30;92.10;;;;;;5038788;28;37061;-61
2022/08/09 12:01:38;;;;;;;1.83;0.70;;;23.30;92.30;;;;;;5041268;28;36647;-61
2022/08/09 12:04:07;;;;;;;1.85;0.68;;;23.40;91.30;;;;;;5041796;28;37248;-61
2022/08/09 12:06:37;;;;;;;1.52;0.60;;;23.40;90.90;;;;;;5048303;28;37632;-62
2022/08/09 12:09:08;;;;;;;3.20;0.55;;;23.40;90.70;;;;;;5047708;28;37461;-62
2022/08/09 12:11:36;;;;;;;2.10;0.80;;;23.40;91.20;;;;;;5046415;28;37469;-61
2022/08/09 12:14:06;;;;;;;5.00;1.00;;;23.40;90.90;;;;;;5046436;28;37286;-61
2022/08/09 12:16:36;;;;;;;1.48;0.60;;;23.50;91.70;;;;;;5043391;28;39266;-62
2022/08/09 12:19:06;;;;;;;1.95;1.10;;;23.50;91.40;;;;;;5044546;28;39706;-62
2022/08/09 12:21:37;;;;;;;1.85;0.60;;;23.50;91.40;;;;;;5045330;28;36626;-62
2022/08/09 12:24:07;;;;;;;1.75;0.65;;;23.40;91.10;;;;;;5043850;28;38029;-61
2022/08/09 12:26:39;;;;;;;3.50;0.60;;;23.40;90.60;;;;;;5045665;28;37848;-61
2022/08/09 12:29:06;;;;;;;2.90;0.90;;;23.40;90.60;;;;;;5048778;28;37282;-61
2022/08/09 12:31:34;;;;;;;1.55;0.73;;;23.40;90.40;;;;;;5046288;28;36835;-61
2022/08/09 12:34:01;;;;;;;1.88;0.80;;;23.30;89.90;;;;;;5044910;28;37518;-61
2022/08/09 12:36:29;;;;;;;2.20;1.00;;;23.20;90.50;;;;;;5043737;28;37754;-62
2022/08/09 12:38:58;;;;;;;2.05;0.90;;;23.20;90.40;;;;;;5048225;28;38658;-62
2022/08/09 12:41:27;;;;;;;2.75;0.77;;;23.10;90.30;;;;;;5047813;28;37236;-61
2022/08/09 12:43:55;;;;;;;1.75;0.70;;;23.10;91.50;;;;;;5043026;28;37679;-61
2022/08/09 12:46:24;;;;;;;1.52;0.90;;;23.20;91.60;;;;;;5043520;28;38208;-62
2022/08/09 12:48:52;;;;;;;2.15;0.65;;;23.20;91.20;;;;;;5043626;28;37419;-61
2022/08/09 12:51:20;;;;;;;0.80;0.65;;;23.20;90.90;;;;;;5042782;28;37296;-61
2022/08/09 12:53:59;;;;;;;3.47;0.75;;;23.10;90.10;;;;;;5043028;28;38066;-61
2022/08/09 12:56:27;;;;;;;1.15;0.70;;;23.20;90.30;;;;;;5042499;28;38240;-61
2022/08/09 12:59:10;;;;;;;3.13;0.70;;;23.20;91.20;;;;;;5045112;28;37585;-62